createdAt,value
2022-11-30T00:03:32.118Z,7.98
2022-11-30T00:08:34.033Z,8.05
2022-11-30T00:13:35.632Z,8.07
2022-11-30T00:18:37.569Z,8.09
2022-11-30T00:23:41.658Z,8.08
2022-11-30T00:28:43.688Z,8.07
2022-11-30T00:33:45.644Z,8.14
2022-11-30T00:38:47.220Z,8.16
2022-11-30T00:43:48.833Z,7.99
2022-11-30T00:48:50.313Z,7.96
2022-11-30T00:53:51.742Z,8.08
2022-11-30T00:58:53.216Z,8.14
2022-11-30T01:03:54.669Z,8.02
2022-11-30T01:08:56.249Z,7.97
2022-11-30T01:13:59.777Z,7.98
2022-11-30T01:19:01.243Z,8.10
2022-11-30T01:24:02.685Z,8.09
2022-11-30T01:29:04.145Z,8.17
2022-11-30T01:34:05.633Z,8.22
2022-11-30T01:39:08.537Z,8.01
2022-11-30T01:44:19.783Z,8.00
2022-11-30T01:49:35.169Z,8.03
2022-11-30T01:55:06.625Z,8.14
2022-11-30T02:00:11.798Z,8.20
2022-11-30T02:05:16.092Z,8.23
2022-11-30T02:10:22.997Z,8.28
2022-11-30T02:15:29.531Z,8.13
2022-11-30T02:21:06.437Z,8.08
2022-11-30T02:26:35.886Z,8.13
2022-11-30T02:31:44.689Z,8.22
2022-11-30T02:36:48.074Z,8.21
2022-11-30T02:41:49.518Z,8.23
2022-11-30T02:47:07.326Z,8.36
2022-11-30T02:52:10.394Z,8.45
2022-11-30T02:57:11.906Z,8.43
2022-11-30T03:02:13.413Z,8.45
2022-11-30T03:07:14.853Z,8.43
2022-11-30T03:12:16.733Z,8.43
2022-11-30T03:17:18.565Z,8.43
2022-11-30T03:22:20.066Z,8.42
2022-11-30T03:27:21.490Z,8.42
2022-11-30T03:32:22.941Z,8.43
2022-11-30T03:37:24.487Z,8.42
2022-11-30T03:42:25.927Z,8.42
2022-11-30T03:47:27.394Z,8.49
2022-11-30T03:52:28.864Z,8.53
2022-11-30T03:57:30.275Z,8.52
2022-11-30T04:02:31.818Z,8.48
2022-11-30T04:07:33.434Z,8.52
2022-11-30T04:12:34.855Z,8.56
2022-11-30T04:17:36.331Z,8.54
2022-11-30T04:22:38.299Z,8.62
2022-11-30T04:27:39.718Z,8.53
2022-11-30T04:32:41.570Z,8.52
2022-11-30T04:37:43.001Z,8.48
2022-11-30T04:42:44.451Z,8.45
2022-11-30T04:47:45.841Z,8.45
2022-11-30T04:52:47.454Z,8.45
2022-11-30T04:57:49.267Z,8.44
2022-11-30T05:02:53.219Z,8.49
2022-11-30T05:07:57.123Z,8.56
2022-11-30T05:12:58.691Z,8.55
2022-11-30T05:18:01.751Z,8.54
2022-11-30T05:23:03.261Z,8.54
2022-11-30T05:28:04.757Z,8.59
2022-11-30T05:33:06.707Z,8.58
2022-11-30T05:38:08.210Z,8.55
2022-11-30T05:43:10.206Z,8.58
2022-11-30T05:48:11.655Z,8.56
2022-11-30T05:53:13.095Z,8.60
2022-11-30T05:58:14.634Z,8.59
2022-11-30T06:03:16.219Z,8.54
2022-11-30T06:08:19.065Z,8.41
2022-11-30T06:13:24.695Z,8.50
2022-11-30T06:18:29.285Z,8.48
2022-11-30T06:23:31.613Z,8.49
2022-11-30T06:28:33.396Z,8.48
2022-11-30T06:33:35.209Z,8.46
2022-11-30T06:38:36.875Z,8.40
2022-11-30T06:43:39.666Z,8.46
2022-11-30T06:48:41.338Z,8.45
2022-11-30T06:53:43.509Z,8.40
2022-11-30T06:58:44.991Z,8.48
2022-11-30T07:03:46.469Z,8.49
2022-11-30T07:08:47.888Z,8.49
2022-11-30T07:13:49.305Z,8.53
2022-11-30T07:18:50.724Z,8.57
2022-11-30T07:23:56.265Z,8.57
2022-11-30T07:33:16.061Z,8.53
2022-11-30T08:05:17.608Z,8.69
2022-11-30T08:10:23.702Z,8.66
2022-11-30T08:15:32.216Z,8.66
2022-11-30T08:20:34.575Z,8.69
2022-11-30T08:25:36.037Z,8.71
2022-11-30T08:30:37.528Z,8.69
2022-11-30T08:35:39.176Z,8.60
2022-11-30T08:40:40.680Z,8.64
2022-11-30T08:45:42.282Z,8.67
2022-11-30T08:50:43.790Z,8.62
2022-11-30T08:55:55.570Z,8.73
2022-11-30T09:01:09.920Z,8.74
2022-11-30T09:06:14.244Z,8.74
2022-11-30T09:11:21.454Z,8.73
2022-11-30T09:16:23.891Z,8.69
2022-11-30T09:38:03.267Z,9.10
2022-11-30T09:43:37.825Z,9.02
2022-11-30T09:49:23.783Z,9.04
2022-11-30T09:54:33.025Z,9.03
2022-11-30T09:59:37.850Z,9.09
2022-11-30T10:04:39.275Z,9.08
2022-11-30T10:10:09.413Z,9.04
2022-11-30T10:15:26.806Z,8.99
2022-11-30T10:21:09.664Z,9.06
2022-11-30T10:26:25.840Z,9.08
2022-11-30T10:31:35.767Z,9.03
2022-11-30T10:36:41.596Z,9.01
2022-11-30T10:41:50.695Z,9.04
2022-11-30T10:47:05.237Z,9.14
2022-11-30T10:52:09.166Z,9.14
2022-11-30T10:57:11.917Z,9.28
2022-11-30T11:02:35.221Z,9.28
2022-11-30T11:23:51.466Z,9.09
2022-11-30T11:28:54.989Z,9.20
2022-11-30T11:50:13.173Z,9.16
2022-11-30T11:55:18.638Z,9.15
2022-11-30T12:00:22.399Z,9.18
2022-11-30T12:05:31.333Z,9.23
2022-11-30T12:10:54.653Z,9.26
2022-11-30T12:16:12.947Z,9.30
2022-11-30T12:21:21.277Z,9.23
2022-11-30T12:26:32.229Z,9.23
2022-11-30T12:31:46.385Z,9.23
2022-11-30T12:37:22.248Z,9.22
2022-11-30T12:42:34.935Z,9.16
2022-11-30T12:47:54.552Z,9.06
2022-11-30T12:53:22.213Z,8.91
2022-11-30T12:58:46.749Z,9.00
2022-11-30T13:04:04.772Z,8.88
2022-11-30T13:09:15.883Z,8.86
2022-11-30T13:14:22.581Z,8.79
2022-11-30T13:19:45.648Z,8.81
2022-11-30T13:24:56.209Z,8.86
2022-11-30T13:30:12.866Z,8.79
2022-11-30T13:35:29.638Z,8.75
2022-11-30T13:40:32.210Z,8.73
2022-11-30T13:45:34.769Z,8.79
2022-11-30T13:50:40.438Z,8.77
2022-11-30T13:55:41.872Z,8.82
2022-11-30T14:01:03.731Z,8.81
2022-11-30T14:06:28.815Z,8.72
2022-11-30T14:11:38.429Z,8.76
2022-11-30T14:16:42.175Z,8.69
2022-11-30T14:21:44.606Z,8.76
2022-11-30T14:26:49.638Z,8.86
2022-11-30T14:32:02.928Z,8.80
2022-11-30T14:37:21.757Z,8.80
2022-11-30T14:42:25.885Z,8.68
2022-11-30T14:47:29.207Z,8.71
2022-11-30T14:52:56.159Z,8.58
2022-11-30T14:58:07.115Z,8.53
2022-11-30T15:03:28.198Z,8.46
2022-11-30T15:08:38.508Z,8.48
2022-11-30T15:13:50.691Z,8.52
2022-11-30T15:18:57.147Z,8.67
2022-11-30T15:24:00.986Z,8.29
2022-11-30T15:29:07.639Z,8.46
2022-11-30T15:34:19.154Z,8.49
2022-11-30T15:39:23.589Z,8.48
2022-11-30T15:44:37.410Z,8.53
2022-11-30T15:49:38.873Z,8.58
2022-11-30T15:54:59.972Z,8.55
2022-11-30T16:00:13.673Z,8.52
2022-11-30T16:05:15.103Z,8.45
2022-11-30T16:10:18.887Z,8.40
2022-11-30T16:15:28.992Z,8.49
2022-11-30T16:20:30.573Z,8.42
2022-11-30T16:25:32.175Z,8.45
2022-11-30T16:30:33.604Z,8.51
2022-11-30T16:35:34.981Z,8.50
2022-11-30T16:40:38.984Z,8.54
2022-11-30T16:45:42.141Z,8.51
2022-11-30T16:50:44.431Z,8.58
2022-11-30T16:55:45.890Z,8.52
2022-11-30T17:00:47.648Z,8.56
2022-11-30T17:05:49.260Z,8.62
2022-11-30T17:10:53.191Z,8.48
2022-11-30T17:15:54.653Z,8.51
2022-11-30T17:20:56.223Z,8.52
2022-11-30T17:25:57.721Z,8.48
2022-11-30T17:30:59.209Z,8.39
2022-11-30T17:36:02.494Z,8.50
2022-11-30T17:41:05.587Z,8.48
2022-11-30T17:46:13.197Z,8.45
2022-11-30T17:51:14.765Z,8.49
2022-11-30T17:56:17.355Z,8.48
2022-11-30T18:01:23.941Z,8.49
2022-11-30T18:06:25.630Z,8.51
2022-11-30T18:11:27.250Z,8.51
2022-11-30T18:16:31.045Z,8.53
2022-11-30T18:21:32.553Z,8.48
2022-11-30T18:26:34.488Z,8.35
2022-11-30T18:31:36.091Z,8.42
2022-11-30T18:36:37.556Z,8.43
2022-11-30T18:41:39.164Z,8.45
2022-11-30T18:46:40.729Z,8.48
2022-11-30T18:51:42.235Z,8.59
2022-11-30T18:56:43.672Z,8.50
2022-11-30T19:01:48.303Z,8.48
2022-11-30T19:06:49.869Z,8.48
2022-11-30T19:11:51.396Z,8.58
2022-11-30T19:16:52.934Z,8.42
2022-11-30T19:21:54.471Z,8.35
2022-11-30T19:26:56.092Z,8.36
2022-11-30T19:31:57.703Z,8.38
2022-11-30T19:36:59.128Z,8.34
2022-11-30T19:42:00.590Z,8.37
2022-11-30T19:47:02.068Z,8.37
2022-11-30T19:52:03.654Z,8.42
2022-11-30T19:57:05.070Z,8.34
2022-11-30T20:02:06.663Z,8.31
2022-11-30T20:07:08.204Z,8.42
2022-11-30T20:12:09.658Z,8.40
2022-11-30T20:17:11.143Z,8.32
2022-11-30T20:22:12.566Z,8.36
2022-11-30T20:27:14.047Z,8.36
2022-11-30T20:32:15.610Z,8.33
2022-11-30T20:37:17.070Z,8.34
2022-11-30T20:42:18.647Z,8.34
2022-11-30T20:47:20.051Z,8.42
2022-11-30T20:52:21.487Z,8.39
2022-11-30T20:57:22.982Z,8.42
2022-11-30T21:02:24.514Z,8.43
2022-11-30T21:07:26.089Z,8.38
2022-11-30T21:12:27.667Z,8.38
2022-11-30T21:17:29.397Z,8.34
2022-11-30T21:22:31.053Z,8.38
2022-11-30T21:27:32.476Z,8.45
2022-11-30T21:32:33.971Z,8.37
2022-11-30T21:37:35.620Z,8.31
2022-11-30T21:42:37.040Z,8.30
2022-11-30T21:47:38.689Z,8.38
2022-11-30T21:52:40.102Z,8.32
2022-11-30T21:57:41.629Z,8.32
2022-11-30T22:02:43.085Z,8.22
2022-11-30T22:07:45.795Z,8.33
2022-11-30T22:12:47.351Z,8.43
2022-11-30T22:17:51.544Z,8.38
2022-11-30T22:22:53.060Z,8.33
2022-11-30T22:27:54.511Z,8.37
2022-11-30T22:32:55.969Z,8.41
2022-11-30T22:37:57.438Z,8.34
2022-11-30T22:42:58.899Z,8.37
2022-11-30T22:48:00.311Z,8.34
2022-11-30T22:53:03.162Z,8.41
2022-11-30T22:58:04.822Z,8.37
2022-11-30T23:03:06.417Z,8.35
2022-11-30T23:08:08.241Z,8.30
2022-11-30T23:13:09.872Z,8.33
2022-11-30T23:18:11.345Z,8.33
2022-11-30T23:23:12.816Z,8.36
2022-11-30T23:28:14.985Z,8.40
2022-11-30T23:33:16.445Z,8.40
2022-11-30T23:38:17.894Z,8.40
2022-11-30T23:43:19.317Z,8.35
2022-11-30T23:48:20.917Z,8.33
2022-11-30T23:53:23.177Z,8.32
2022-11-30T23:58:24.603Z,8.39
